createdAt,value
2018-05-25T00:00:45.665Z,2.87
2018-05-25T00:03:13.970Z,2.87
2018-05-25T00:05:42.293Z,2.97
2018-05-25T00:08:11.371Z,3.30
2018-05-25T00:10:39.678Z,2.93
2018-05-25T00:13:08.294Z,3.03
2018-05-25T00:15:36.625Z,3.00
2018-05-25T00:18:06.919Z,2.90
2018-05-25T00:20:35.225Z,3.40
2018-05-25T00:23:04.445Z,3.00
2018-05-25T00:25:32.901Z,2.87
2018-05-25T00:28:01.371Z,3.00
2018-05-25T00:30:29.662Z,3.93
2018-05-25T00:32:58.646Z,3.17
2018-05-25T00:35:27.032Z,3.07
2018-05-25T00:37:55.367Z,3.50
2018-05-25T00:40:23.685Z,3.00
2018-05-25T00:42:52.010Z,3.03
2018-05-25T00:45:21.105Z,3.30
2018-05-25T00:47:49.438Z,3.77
2018-05-25T00:50:17.747Z,3.70
2018-05-25T00:52:46.913Z,3.50
2018-05-25T00:55:26.989Z,3.67
2018-05-25T00:57:55.315Z,3.53
2018-05-25T01:00:23.658Z,3.13
2018-05-25T01:02:51.969Z,3.50
2018-05-25T01:05:21.082Z,3.00
2018-05-25T01:07:49.393Z,3.37
2018-05-25T01:10:17.740Z,3.07
2018-05-25T01:12:46.814Z,3.63
2018-05-25T01:15:15.158Z,3.37
2018-05-25T01:17:43.465Z,2.87
2018-05-25T01:20:11.796Z,3.93
2018-05-25T01:22:40.109Z,3.40
2018-05-25T01:25:08.450Z,4.03
2018-05-25T01:27:37.530Z,2.97
2018-05-25T01:30:05.869Z,4.27
2018-05-25T01:32:34.175Z,3.20
2018-05-25T01:35:02.486Z,3.83
2018-05-25T01:37:31.585Z,3.37
2018-05-25T01:40:00.647Z,3.50
2018-05-25T01:42:29.011Z,3.20
2018-05-25T01:44:57.344Z,3.80
2018-05-25T01:47:26.435Z,4.27
2018-05-25T01:49:55.511Z,3.70
2018-05-25T01:52:23.872Z,3.50
2018-05-25T01:54:52.175Z,4.43
2018-05-25T01:57:20.509Z,3.87
2018-05-25T01:59:48.818Z,4.00
2018-05-25T02:02:17.158Z,3.87
2018-05-25T02:04:46.233Z,3.97
2018-05-25T02:07:15.365Z,4.10
2018-05-25T02:09:43.681Z,4.03
2018-05-25T02:12:12.009Z,3.87
2018-05-25T02:14:41.202Z,4.40
2018-05-25T02:17:10.279Z,4.17
2018-05-25T02:19:38.613Z,4.30
2018-05-25T02:22:06.919Z,4.13
2018-05-25T02:24:35.235Z,4.50
2018-05-25T02:27:03.547Z,4.73
2018-05-25T02:29:32.656Z,4.50
2018-05-25T02:32:00.973Z,4.00
2018-05-25T02:34:29.331Z,4.37
2018-05-25T02:36:57.661Z,4.43
2018-05-25T02:39:26.016Z,3.87
2018-05-25T02:41:54.329Z,4.17
2018-05-25T02:44:22.666Z,4.10
2018-05-25T02:46:50.962Z,3.90
2018-05-25T02:49:19.326Z,4.07
2018-05-25T02:51:47.629Z,4.97
2018-05-25T02:54:15.929Z,4.23
2018-05-25T02:56:44.268Z,4.00
2018-05-25T02:59:12.596Z,3.93
2018-05-25T03:01:40.917Z,4.60
2018-05-25T03:04:09.221Z,4.17
2018-05-25T03:06:37.531Z,4.03
2018-05-25T03:09:05.818Z,4.93
2018-05-25T03:11:34.146Z,4.30
2018-05-25T03:14:03.833Z,4.30
2018-05-25T03:16:32.335Z,3.80
2018-05-25T03:19:00.667Z,4.10
2018-05-25T03:21:29.985Z,4.17
2018-05-25T03:23:58.653Z,3.57
2018-05-25T03:26:26.978Z,4.37
2018-05-25T03:28:56.321Z,4.40
2018-05-25T03:31:24.841Z,4.37
2018-05-25T03:33:53.185Z,4.73
2018-05-25T03:36:21.493Z,4.40
2018-05-25T03:38:49.899Z,4.33
2018-05-25T03:41:19.006Z,3.80
2018-05-25T03:43:48.111Z,4.00
2018-05-25T03:46:17.182Z,3.87
2018-05-25T03:48:46.304Z,4.90
2018-05-25T03:51:15.371Z,4.30
2018-05-25T03:53:43.945Z,4.23
2018-05-25T03:56:12.264Z,4.17
2018-05-25T03:58:53.246Z,4.27
2018-05-25T04:01:33.562Z,4.00
2018-05-25T04:04:01.868Z,4.10
2018-05-25T04:06:31.083Z,4.20
2018-05-25T04:08:59.411Z,4.23
2018-05-25T04:11:27.728Z,4.20
2018-05-25T04:13:56.076Z,4.43
2018-05-25T04:16:24.427Z,4.30
2018-05-25T04:18:52.766Z,4.67
2018-05-25T04:21:21.101Z,4.63
2018-05-25T04:23:49.422Z,4.00
2018-05-25T04:26:17.839Z,4.03
2018-05-25T04:28:46.162Z,3.80
2018-05-25T04:31:14.468Z,4.13
2018-05-25T04:33:42.801Z,4.07
2018-05-25T04:36:11.137Z,3.70
2018-05-25T04:38:39.459Z,4.43
2018-05-25T04:41:07.756Z,5.10
2018-05-25T04:43:36.109Z,4.30
2018-05-25T04:46:05.189Z,4.80
2018-05-25T04:48:34.277Z,3.93
2018-05-25T04:51:02.607Z,3.83
2018-05-25T04:53:31.964Z,4.13
2018-05-25T04:56:01.037Z,3.77
2018-05-25T04:58:29.369Z,4.00
2018-05-25T05:00:58.454Z,3.70
2018-05-25T05:03:27.525Z,4.80
2018-05-25T05:05:55.857Z,4.27
2018-05-25T05:08:24.179Z,3.77
2018-05-25T05:10:52.506Z,3.90
2018-05-25T05:13:20.871Z,4.10
2018-05-25T05:15:50.732Z,3.90
2018-05-25T05:18:19.057Z,3.77
2018-05-25T05:20:47.361Z,3.90
2018-05-25T05:23:16.441Z,3.70
2018-05-25T05:25:46.267Z,3.50
2018-05-25T05:28:14.651Z,3.50
2018-05-25T05:30:43.757Z,3.43
2018-05-25T05:33:12.856Z,3.47
2018-05-25T05:35:41.972Z,3.43
2018-05-25T05:38:10.276Z,3.63
2018-05-25T05:40:38.595Z,3.53
2018-05-25T05:43:06.933Z,3.40
2018-05-25T05:45:35.239Z,3.63
2018-05-25T05:48:03.565Z,3.13
2018-05-25T05:50:32.650Z,3.73
2018-05-25T05:53:01.100Z,4.47
2018-05-25T05:55:29.408Z,3.40
2018-05-25T05:57:57.768Z,3.67
2018-05-25T06:00:26.088Z,3.20
2018-05-25T06:02:55.177Z,2.97
2018-05-25T06:05:23.468Z,3.13
2018-05-25T06:07:51.818Z,3.90
2018-05-25T06:10:20.120Z,3.33
2018-05-25T06:12:48.443Z,3.67
2018-05-25T06:15:16.775Z,3.47
2018-05-25T06:17:45.117Z,3.13
2018-05-25T06:20:13.872Z,3.20
2018-05-25T06:22:42.943Z,3.17
2018-05-25T06:25:12.967Z,4.00
2018-05-25T06:27:42.079Z,2.70
2018-05-25T06:30:12.270Z,2.70
2018-05-25T06:32:40.682Z,3.40
2018-05-25T06:35:10.154Z,3.30
2018-05-25T06:37:38.454Z,2.90
2018-05-25T06:40:07.050Z,3.03
2018-05-25T06:42:36.132Z,3.30
2018-05-25T06:45:04.988Z,2.53
2018-05-25T06:47:33.278Z,3.00
2018-05-25T06:50:01.597Z,3.47
2018-05-25T06:52:31.448Z,2.70
2018-05-25T06:55:00.551Z,2.53
2018-05-25T06:57:28.873Z,2.73
2018-05-25T06:59:57.202Z,3.03
2018-05-25T07:02:26.280Z,2.93
2018-05-25T07:04:54.592Z,3.17
2018-05-25T07:07:22.933Z,3.20
2018-05-25T07:09:52.016Z,2.80
2018-05-25T07:12:20.341Z,2.70
2018-05-25T07:14:49.416Z,2.67
2018-05-25T07:17:17.774Z,2.90
2018-05-25T07:19:46.577Z,2.17
2018-05-25T07:22:14.935Z,2.50
2018-05-25T07:24:43.266Z,2.45
2018-05-25T07:27:11.555Z,2.40
2018-05-25T07:29:40.870Z,2.60
2018-05-25T07:32:09.970Z,3.75
2018-05-25T07:34:39.045Z,2.75
2018-05-25T07:37:08.179Z,2.80
2018-05-25T07:39:36.525Z,3.28
2018-05-25T07:42:04.890Z,3.05
2018-05-25T07:44:33.232Z,2.25
2018-05-25T07:47:01.578Z,2.30
2018-05-25T07:49:30.804Z,2.28
2018-05-25T07:51:59.118Z,2.50
2018-05-25T07:54:27.505Z,2.17
2018-05-25T07:56:55.789Z,2.50
2018-05-25T07:59:24.164Z,2.65
2018-05-25T08:01:52.494Z,2.83
2018-05-25T08:04:21.602Z,2.50
2018-05-25T08:06:49.915Z,2.50
2018-05-25T08:09:18.267Z,2.58
2018-05-25T08:11:46.584Z,2.55
2018-05-25T08:14:14.907Z,2.50
2018-05-25T08:16:44.005Z,2.50
2018-05-25T08:19:12.341Z,2.17
2018-05-25T08:21:40.671Z,2.78
2018-05-25T08:24:09.760Z,2.35
2018-05-25T08:26:38.086Z,2.75
2018-05-25T08:29:06.398Z,2.37
2018-05-25T08:31:34.726Z,2.42
2018-05-25T08:34:03.857Z,2.40
2018-05-25T08:36:32.214Z,2.45
2018-05-25T08:39:01.291Z,2.75
2018-05-25T08:41:29.618Z,2.03
2018-05-25T08:43:57.947Z,2.37
2018-05-25T08:46:27.756Z,2.90
2018-05-25T08:48:56.095Z,1.80
2018-05-25T08:51:24.462Z,2.50
2018-05-25T08:53:52.796Z,2.05
2018-05-25T08:56:21.113Z,2.40
2018-05-25T08:58:50.190Z,1.85
2018-05-25T09:01:18.551Z,2.05
2018-05-25T09:03:46.862Z,2.37
2018-05-25T09:06:15.935Z,2.40
2018-05-25T09:08:44.291Z,1.80
2018-05-25T09:11:12.640Z,2.37
2018-05-25T09:13:41.008Z,2.15
2018-05-25T09:16:11.382Z,2.33
2018-05-25T09:18:39.720Z,2.03
2018-05-25T09:21:10.828Z,2.20
2018-05-25T09:23:40.041Z,2.45
2018-05-25T09:26:08.393Z,2.00
2018-05-25T09:28:36.748Z,2.37
2018-05-25T09:31:05.851Z,1.80
2018-05-25T09:33:34.190Z,2.62
2018-05-25T09:36:03.117Z,2.17
2018-05-25T09:38:31.437Z,2.20
2018-05-25T09:40:59.765Z,2.00
2018-05-25T09:43:28.148Z,2.28
2018-05-25T09:45:56.491Z,2.50
2018-05-25T09:48:24.834Z,2.40
2018-05-25T09:50:53.157Z,2.30
2018-05-25T09:53:21.492Z,2.17
2018-05-25T09:55:50.551Z,2.00
2018-05-25T09:58:18.891Z,2.10
2018-05-25T10:00:47.237Z,2.33
2018-05-25T10:03:16.328Z,1.85
2018-05-25T10:05:45.498Z,2.00
2018-05-25T10:08:13.803Z,1.85
2018-05-25T10:10:42.151Z,1.98
2018-05-25T10:13:10.475Z,1.85
2018-05-25T10:15:38.854Z,2.10
2018-05-25T10:18:07.213Z,1.92
2018-05-25T10:20:35.563Z,2.08
2018-05-25T10:23:03.934Z,2.20
2018-05-25T10:25:32.283Z,3.25
2018-05-25T10:28:00.602Z,1.62
2018-05-25T10:30:28.919Z,2.10
2018-05-25T10:32:57.252Z,1.90
2018-05-25T10:35:26.377Z,2.00
2018-05-25T10:37:54.725Z,1.92
2018-05-25T10:40:23.824Z,2.03
2018-05-25T10:42:52.917Z,2.20
2018-05-25T10:45:21.997Z,1.80
2018-05-25T10:47:50.336Z,1.90
2018-05-25T10:50:18.669Z,1.70
2018-05-25T10:52:47.789Z,1.90
2018-05-25T10:55:17.501Z,2.03
2018-05-25T10:57:46.615Z,1.90
2018-05-25T11:00:14.938Z,2.05
2018-05-25T11:02:44.903Z,1.80
2018-05-25T11:05:14.010Z,2.00
2018-05-25T11:07:42.360Z,2.10
2018-05-25T11:10:10.703Z,1.80
2018-05-25T11:12:39.085Z,2.05
2018-05-25T11:15:07.399Z,2.00
2018-05-25T11:17:35.743Z,1.80
2018-05-25T11:20:04.071Z,1.62
2018-05-25T11:22:33.520Z,2.25
2018-05-25T11:25:01.836Z,2.42
2018-05-25T11:27:30.185Z,1.80
2018-05-25T11:29:58.555Z,1.95
2018-05-25T11:32:26.895Z,2.00
2018-05-25T11:34:56.776Z,2.03
2018-05-25T11:37:25.094Z,1.80
2018-05-25T11:39:53.452Z,1.75
2018-05-25T11:42:21.770Z,1.90
2018-05-25T11:44:50.103Z,1.80
2018-05-25T11:47:18.415Z,2.10
2018-05-25T11:49:46.764Z,2.03
2018-05-25T11:52:15.126Z,2.25
2018-05-25T11:54:44.069Z,2.20
2018-05-25T11:57:12.395Z,2.28
2018-05-25T11:59:40.774Z,2.03
2018-05-25T12:02:09.861Z,2.23
2018-05-25T12:04:38.947Z,1.90
2018-05-25T12:07:07.259Z,2.17
2018-05-25T12:09:36.442Z,2.10
2018-05-25T12:12:06.606Z,1.93
2018-05-25T12:14:34.922Z,1.90
2018-05-25T12:17:04.221Z,2.10
2018-05-25T12:19:32.912Z,2.13
2018-05-25T12:22:01.408Z,1.77
2018-05-25T12:24:29.766Z,1.80
2018-05-25T12:26:58.968Z,2.20
2018-05-25T12:29:27.321Z,2.17
2018-05-25T12:31:55.670Z,2.30
2018-05-25T12:34:24.228Z,2.13
2018-05-25T12:36:52.604Z,2.10
2018-05-25T12:39:21.010Z,2.27
2018-05-25T12:41:49.336Z,2.30
2018-05-25T12:44:17.686Z,2.40
2018-05-25T12:46:46.786Z,2.40
2018-05-25T12:49:15.158Z,2.10
2018-05-25T12:51:43.462Z,2.30
2018-05-25T12:54:13.332Z,2.10
2018-05-25T12:56:42.460Z,1.93
2018-05-25T12:59:10.718Z,2.27
2018-05-25T13:01:39.085Z,2.00
2018-05-25T13:04:07.405Z,2.00
2018-05-25T13:06:36.491Z,2.20
2018-05-25T13:09:04.791Z,1.90
2018-05-25T13:11:35.117Z,2.20
2018-05-25T13:14:04.470Z,1.90
2018-05-25T13:16:32.817Z,1.90
2018-05-25T13:19:01.162Z,2.10
2018-05-25T13:21:29.557Z,2.00
2018-05-25T13:23:57.873Z,2.00
2018-05-25T13:26:26.300Z,2.00
2018-05-25T13:28:54.633Z,2.23
2018-05-25T13:31:22.944Z,1.90
2018-05-25T13:33:51.354Z,1.90
2018-05-25T13:36:19.696Z,1.90
2018-05-25T13:38:48.053Z,1.83
2018-05-25T13:41:17.166Z,1.43
2018-05-25T13:43:45.563Z,2.10
2018-05-25T13:46:13.899Z,2.10
2018-05-25T13:48:42.244Z,2.27
2018-05-25T13:51:10.583Z,2.00
2018-05-25T13:53:39.709Z,1.77
2018-05-25T13:56:08.058Z,2.30
2018-05-25T13:58:36.481Z,2.03
2018-05-25T14:01:04.777Z,2.20
2018-05-25T14:03:33.094Z,2.30
2018-05-25T14:06:02.200Z,2.10
2018-05-25T14:08:31.296Z,1.97
2018-05-25T14:11:00.427Z,2.10
2018-05-25T14:13:28.759Z,2.03
2018-05-25T14:15:57.131Z,2.43
2018-05-25T14:18:25.481Z,2.00
2018-05-25T14:20:53.918Z,2.30
2018-05-25T14:23:22.460Z,2.33
2018-05-25T14:25:50.946Z,2.13
2018-05-25T14:28:19.265Z,2.30
2018-05-25T14:30:47.700Z,2.03
2018-05-25T14:33:16.050Z,2.00
2018-05-25T14:35:45.213Z,1.90
2018-05-25T14:38:13.805Z,1.90
2018-05-25T14:40:43.360Z,2.33
2018-05-25T14:43:12.465Z,2.10
2018-05-25T14:45:40.885Z,2.13
2018-05-25T14:48:09.477Z,2.67
2018-05-25T14:50:39.107Z,2.77
2018-05-25T14:53:08.877Z,2.40
2018-05-25T14:55:37.434Z,2.17
2018-05-25T14:58:06.196Z,2.10
2018-05-25T15:00:35.633Z,2.00
2018-05-25T15:03:04.683Z,2.67
2018-05-25T15:05:33.296Z,2.00
2018-05-25T15:08:03.757Z,2.20
2018-05-25T15:10:32.938Z,2.30
2018-05-25T15:13:03.476Z,2.40
2018-05-25T15:15:32.015Z,2.53
2018-05-25T15:18:01.161Z,2.13
2018-05-25T15:20:29.535Z,2.43
2018-05-25T15:22:58.288Z,2.63
2018-05-25T15:25:26.692Z,2.43
2018-05-25T15:27:55.960Z,2.50
2018-05-25T15:30:24.616Z,2.67
2018-05-25T15:32:52.928Z,2.70
2018-05-25T15:35:22.027Z,2.00
2018-05-25T15:37:50.355Z,2.90
2018-05-25T15:40:19.466Z,2.30
2018-05-25T15:42:47.802Z,2.37
2018-05-25T15:45:16.107Z,2.00
2018-05-25T15:47:45.948Z,2.23
2018-05-25T15:50:14.307Z,1.90
2018-05-25T15:52:43.408Z,1.93
2018-05-25T15:55:11.724Z,2.27
2018-05-25T15:57:40.072Z,2.07
2018-05-25T16:00:08.379Z,2.20
2018-05-25T16:02:37.479Z,2.53
2018-05-25T16:05:06.559Z,2.60
2018-05-25T16:07:35.678Z,2.00
2018-05-25T16:10:04.033Z,2.50
2018-05-25T16:12:32.375Z,2.33
2018-05-25T16:15:00.733Z,2.07
2018-05-25T16:17:29.079Z,2.17
2018-05-25T16:19:58.985Z,2.30
2018-05-25T16:22:27.331Z,2.50
2018-05-25T16:24:55.673Z,2.57
2018-05-25T16:27:24.787Z,2.63
2018-05-25T16:29:54.021Z,2.33
2018-05-25T16:32:22.370Z,2.40
2018-05-25T16:34:51.511Z,2.50
2018-05-25T16:37:19.933Z,2.10
2018-05-25T16:39:49.081Z,2.27
2018-05-25T16:42:17.434Z,2.27
2018-05-25T16:44:46.176Z,2.47
2018-05-25T16:47:14.627Z,2.23
2018-05-25T16:49:44.065Z,2.33
2018-05-25T16:52:12.429Z,2.07
2018-05-25T16:54:40.790Z,2.70
2018-05-25T16:57:09.171Z,2.47
2018-05-25T16:59:37.530Z,2.00
2018-05-25T17:02:06.632Z,2.20
2018-05-25T17:04:35.741Z,2.33
2018-05-25T17:07:04.845Z,2.30
2018-05-25T17:09:33.186Z,2.30
2018-05-25T17:12:01.662Z,2.37
2018-05-25T17:14:29.987Z,2.67
2018-05-25T17:16:58.388Z,2.53
2018-05-25T17:19:27.506Z,2.37
2018-05-25T17:21:55.850Z,1.93
2018-05-25T17:24:24.599Z,2.30
2018-05-25T17:26:52.906Z,1.80
2018-05-25T17:29:21.294Z,2.23
2018-05-25T17:31:50.517Z,2.63
2018-05-25T17:34:19.852Z,1.80
2018-05-25T17:36:48.170Z,2.10
2018-05-25T17:39:16.583Z,2.07
2018-05-25T17:41:44.900Z,2.47
2018-05-25T17:44:13.238Z,1.93
2018-05-25T17:46:42.328Z,2.60
2018-05-25T17:49:11.475Z,2.00
2018-05-25T17:51:39.774Z,2.23
2018-05-25T17:54:08.106Z,1.67
2018-05-25T17:56:37.201Z,2.27
2018-05-25T17:59:05.735Z,2.10
2018-05-25T18:01:34.221Z,2.00
2018-05-25T18:04:02.810Z,2.10
2018-05-25T18:06:31.200Z,2.00
2018-05-25T18:09:00.497Z,1.80
2018-05-25T18:11:29.002Z,1.80
2018-05-25T18:13:59.247Z,1.80
2018-05-25T18:16:28.479Z,1.70
2018-05-25T18:18:57.520Z,2.50
2018-05-25T18:21:26.511Z,2.27
2018-05-25T18:23:55.558Z,1.80
2018-05-25T18:26:25.629Z,1.67
2018-05-25T18:28:55.409Z,1.70
2018-05-25T18:31:24.327Z,2.20
2018-05-25T18:33:54.877Z,1.63
2018-05-25T18:36:24.164Z,1.73
2018-05-25T18:38:53.638Z,2.97
2018-05-25T18:41:24.508Z,2.17
2018-05-25T18:43:55.166Z,1.97
2018-05-25T18:46:24.548Z,2.20
2018-05-25T18:48:55.388Z,1.73
2018-05-25T18:51:25.005Z,1.77
2018-05-25T18:54:05.866Z,1.80
2018-05-25T18:56:35.681Z,2.03
2018-05-25T18:59:05.707Z,2.07
2018-05-25T19:01:35.209Z,1.93
2018-05-25T19:04:05.234Z,1.70
2018-05-25T19:06:34.022Z,1.90
2018-05-25T19:09:04.364Z,1.80
2018-05-25T19:11:33.480Z,1.90
2018-05-25T19:14:02.439Z,1.90
2018-05-25T19:16:31.034Z,2.23
2018-05-25T19:19:00.038Z,2.53
2018-05-25T19:21:29.544Z,2.50
2018-05-25T19:23:59.251Z,1.97
2018-05-25T19:26:27.998Z,2.07
2018-05-25T19:28:56.838Z,1.80
2018-05-25T19:31:26.966Z,1.97
2018-05-25T19:33:56.677Z,1.67
2018-05-25T19:36:25.577Z,1.77
2018-05-25T19:38:54.916Z,2.10
2018-05-25T19:41:24.381Z,1.63
2018-05-25T19:43:52.968Z,2.10
2018-05-25T19:46:22.477Z,2.20
2018-05-25T19:48:51.718Z,2.13
2018-05-25T19:51:21.241Z,1.97
2018-05-25T19:53:49.682Z,1.63
2018-05-25T19:56:18.253Z,1.80
2018-05-25T19:58:46.622Z,2.07
2018-05-25T20:01:15.141Z,1.77
2018-05-25T20:03:45.038Z,1.70
2018-05-25T20:06:13.471Z,1.70
2018-05-25T20:08:42.597Z,1.67
2018-05-25T20:11:10.933Z,1.97
2018-05-25T20:13:39.253Z,1.50
2018-05-25T20:16:07.688Z,1.80
2018-05-25T20:18:36.012Z,1.80
2018-05-25T20:21:04.357Z,1.60
2018-05-25T20:23:32.847Z,1.90
2018-05-25T20:26:02.234Z,1.83
2018-05-25T20:28:30.637Z,1.80
2018-05-25T20:30:58.945Z,2.07
2018-05-25T20:33:27.376Z,1.93
2018-05-25T20:35:55.702Z,2.30
2018-05-25T20:38:24.902Z,1.70
2018-05-25T20:40:55.925Z,2.10
2018-05-25T20:43:24.306Z,1.60
2018-05-25T20:45:52.633Z,2.13
2018-05-25T20:48:21.008Z,2.37
2018-05-25T20:50:49.378Z,2.03
2018-05-25T20:53:18.546Z,1.93
2018-05-25T20:55:46.865Z,1.87
2018-05-25T20:58:15.195Z,2.00
2018-05-25T21:00:43.550Z,2.03
2018-05-25T21:03:12.391Z,1.98
2018-05-25T21:05:41.556Z,2.00
2018-05-25T21:08:09.874Z,1.97
2018-05-25T21:10:38.224Z,2.57
2018-05-25T21:13:06.542Z,1.73
2018-05-25T21:15:34.915Z,2.00
2018-05-25T21:18:03.237Z,2.10
2018-05-25T21:20:32.348Z,2.17
2018-05-25T21:23:00.666Z,2.00
2018-05-25T21:25:29.001Z,2.30
2018-05-25T21:27:57.329Z,2.00
2018-05-25T21:30:25.688Z,1.53
2018-05-25T21:32:54.049Z,1.90
2018-05-25T21:35:22.408Z,1.77
2018-05-25T21:37:51.494Z,2.17
2018-05-25T21:40:20.599Z,2.50
2018-05-25T21:42:49.795Z,1.97
2018-05-25T21:45:18.128Z,2.10
2018-05-25T21:47:46.450Z,1.90
2018-05-25T21:50:14.769Z,1.97
2018-05-25T21:52:43.182Z,1.60
2018-05-25T21:55:12.558Z,2.00
2018-05-25T21:57:41.009Z,1.50
2018-05-25T22:00:12.684Z,1.90
2018-05-25T22:02:41.071Z,2.17
2018-05-25T22:05:10.556Z,2.23
2018-05-25T22:07:39.480Z,1.93
2018-05-25T22:10:08.057Z,2.00
2018-05-25T22:12:36.560Z,1.93
2018-05-25T22:15:04.904Z,1.87
2018-05-25T22:17:34.639Z,1.93
2018-05-25T22:20:03.796Z,1.80
2018-05-25T22:22:32.113Z,1.90
2018-05-25T22:25:01.313Z,2.10
2018-05-25T22:27:30.404Z,2.00
2018-05-25T22:29:59.533Z,1.80
2018-05-25T22:32:27.861Z,2.03
2018-05-25T22:34:56.209Z,1.80
2018-05-25T22:37:24.547Z,1.80
2018-05-25T22:39:52.876Z,2.10
2018-05-25T22:42:33.145Z,2.00
2018-05-25T22:45:13.458Z,1.67
2018-05-25T22:47:54.579Z,2.07
2018-05-25T22:50:35.067Z,2.10
2018-05-25T22:53:08.518Z,2.10
2018-05-25T22:55:37.529Z,1.80
2018-05-25T22:58:05.870Z,2.03
2018-05-25T23:00:34.767Z,1.90
2018-05-25T23:03:03.470Z,2.30
2018-05-25T23:05:32.705Z,1.83
2018-05-25T23:08:01.135Z,2.10
2018-05-25T23:10:30.552Z,2.00
2018-05-25T23:12:58.883Z,2.20
2018-05-25T23:15:27.953Z,2.23
2018-05-25T23:17:56.313Z,2.13
2018-05-25T23:20:24.615Z,2.57
2018-05-25T23:22:52.906Z,2.10
2018-05-25T23:25:21.267Z,2.20
2018-05-25T23:27:49.665Z,1.80
2018-05-25T23:30:17.994Z,1.77
2018-05-25T23:32:47.085Z,1.93
2018-05-25T23:35:15.441Z,2.03
2018-05-25T23:37:43.780Z,2.10
2018-05-25T23:40:12.913Z,2.20
2018-05-25T23:42:41.258Z,2.00
2018-05-25T23:45:10.393Z,2.13
2018-05-25T23:47:38.722Z,1.93
2018-05-25T23:50:07.830Z,1.80
2018-05-25T23:52:36.904Z,1.90
2018-05-25T23:55:05.250Z,1.80
2018-05-25T23:57:33.571Z,1.87
